createdAt,value
2023-02-14T00:01:48.504Z,4.19
2023-02-14T00:05:53.501Z,4.17
2023-02-14T00:09:58.257Z,4.15
2023-02-14T00:14:18.835Z,4.11
2023-02-14T00:18:44.732Z,4.14
2023-02-14T00:22:47.854Z,4.16
2023-02-14T00:26:53.260Z,4.11
2023-02-14T00:30:59.204Z,4.09
2023-02-14T00:35:05.743Z,4.10
2023-02-14T00:39:11.491Z,4.08
2023-02-14T00:43:23.379Z,4.07
2023-02-14T00:47:26.493Z,4.05
2023-02-14T00:51:29.855Z,4.08
2023-02-14T00:55:34.598Z,4.06
2023-02-14T00:59:39.193Z,3.97
2023-02-14T01:03:43.016Z,3.99
2023-02-14T01:07:46.133Z,3.95
2023-02-14T01:11:49.935Z,3.95
2023-02-14T01:15:55.025Z,3.95
2023-02-14T01:19:58.165Z,4.01
2023-02-14T01:24:03.233Z,4.01
2023-02-14T01:28:06.339Z,3.90
2023-02-14T01:32:10.805Z,3.87
2023-02-14T01:36:20.091Z,3.90
2023-02-14T01:40:23.188Z,3.88
2023-02-14T01:44:59.583Z,3.83
2023-02-14T01:49:07.441Z,3.80
2023-02-14T01:53:13.826Z,3.79
2023-02-14T01:57:20.959Z,3.76
2023-02-14T02:01:25.439Z,3.74
2023-02-14T02:05:32.662Z,3.72
2023-02-14T02:09:38.409Z,3.68
2023-02-14T02:13:41.366Z,3.70
2023-02-14T02:17:53.342Z,3.65
2023-02-14T02:22:26.272Z,3.64
2023-02-14T02:26:55.756Z,3.61
2023-02-14T02:31:22.523Z,3.59
2023-02-14T02:35:51.719Z,3.56
2023-02-14T02:40:09.044Z,3.55
2023-02-14T02:44:21.313Z,3.48
2023-02-14T02:48:27.864Z,3.50
2023-02-14T02:52:58.736Z,3.48
2023-02-14T02:57:07.184Z,3.43
2023-02-14T03:01:13.677Z,3.44
2023-02-14T03:05:18.151Z,3.39
2023-02-14T03:09:57.762Z,3.42
2023-02-14T03:14:14.300Z,3.38
2023-02-14T03:18:40.002Z,3.36
2023-02-14T03:22:50.470Z,3.40
2023-02-14T03:27:01.537Z,3.36
2023-02-14T03:31:10.008Z,3.32
2023-02-14T03:35:19.079Z,3.30
2023-02-14T03:39:29.675Z,3.28
2023-02-14T03:43:38.285Z,3.26
2023-02-14T03:47:43.805Z,3.22
2023-02-14T03:51:55.241Z,3.20
2023-02-14T03:56:04.916Z,3.21
2023-02-14T04:00:11.107Z,3.19
2023-02-14T04:04:16.211Z,3.17
2023-02-14T04:08:26.776Z,3.13
2023-02-14T04:12:37.756Z,3.12
2023-02-14T04:16:56.507Z,3.10
2023-02-14T04:20:59.313Z,3.05
2023-02-14T04:25:02.721Z,3.02
2023-02-14T04:29:06.352Z,3.00
2023-02-14T04:33:11.012Z,3.00
2023-02-14T04:37:15.360Z,2.98
2023-02-14T04:41:18.576Z,2.99
2023-02-14T04:45:21.658Z,2.96
2023-02-14T04:49:26.227Z,2.95
2023-02-14T04:53:31.918Z,2.91
2023-02-14T04:57:35.085Z,2.90
2023-02-14T05:01:39.066Z,2.88
2023-02-14T05:05:44.864Z,2.90
2023-02-14T05:09:49.907Z,2.85
2023-02-14T05:13:54.770Z,2.84
2023-02-14T05:18:01.857Z,2.86
2023-02-14T05:22:06.662Z,2.81
2023-02-14T05:26:09.579Z,2.79
2023-02-14T05:30:14.832Z,2.82
2023-02-14T05:34:18.898Z,2.81
2023-02-14T05:38:23.145Z,2.80
2023-02-14T05:42:27.757Z,2.75
2023-02-14T05:46:30.831Z,2.74
2023-02-14T05:50:34.040Z,2.75
2023-02-14T05:54:38.303Z,2.75
2023-02-14T05:58:41.379Z,2.73
2023-02-14T06:02:44.544Z,2.75
2023-02-14T06:06:47.994Z,2.74
2023-02-14T06:10:52.497Z,2.71
2023-02-14T06:14:55.809Z,2.70
2023-02-14T06:18:58.922Z,2.71
2023-02-14T06:23:03.008Z,2.70
2023-02-14T06:27:07.344Z,2.72
2023-02-14T06:31:16.220Z,2.72
2023-02-14T06:35:19.491Z,2.67
2023-02-14T06:39:23.909Z,2.70
2023-02-14T06:43:28.529Z,2.70
2023-02-14T06:47:33.296Z,2.72
2023-02-14T06:51:37.700Z,2.70
2023-02-14T06:55:43.538Z,2.70
2023-02-14T06:59:48.683Z,2.75
2023-02-14T07:03:51.423Z,2.74
2023-02-14T07:07:55.886Z,2.72
2023-02-14T07:11:58.399Z,2.70
2023-02-14T07:16:03.026Z,2.75
2023-02-14T07:20:07.620Z,2.76
2023-02-14T07:24:13.890Z,2.79
2023-02-14T07:28:17.096Z,2.88
2023-02-14T07:32:21.759Z,2.89
2023-02-14T07:36:24.803Z,2.90
2023-02-14T07:40:33.572Z,2.93
2023-02-14T07:45:06.875Z,3.00
2023-02-14T07:49:09.507Z,3.03
2023-02-14T07:53:17.215Z,3.08
2023-02-14T07:57:20.399Z,3.10
2023-02-14T08:01:23.423Z,3.08
2023-02-14T08:05:29.659Z,3.01
2023-02-14T08:09:33.272Z,3.04
2023-02-14T08:13:36.913Z,2.99
2023-02-14T08:17:40.049Z,3.02
2023-02-14T08:21:44.310Z,3.07
2023-02-14T08:25:47.232Z,3.14
2023-02-14T08:29:50.533Z,3.13
2023-02-14T08:33:53.700Z,3.15
2023-02-14T08:37:58.394Z,3.19
2023-02-14T08:42:03.649Z,3.17
2023-02-14T08:46:07.028Z,3.13
2023-02-14T08:50:15.280Z,3.13
2023-02-14T08:54:20.049Z,3.18
2023-02-14T08:58:23.167Z,3.16
2023-02-14T09:02:27.755Z,3.23
2023-02-14T09:06:31.652Z,3.32
2023-02-14T09:10:39.448Z,3.30
2023-02-14T09:14:45.623Z,3.25
2023-02-14T09:18:49.698Z,3.32
2023-02-14T09:22:52.948Z,3.32
2023-02-14T09:26:58.357Z,3.35
2023-02-14T09:31:11.224Z,3.46
2023-02-14T09:35:31.417Z,3.51
2023-02-14T09:39:38.164Z,3.63
2023-02-14T09:43:50.997Z,3.62
2023-02-14T09:47:58.956Z,3.65
2023-02-14T09:52:07.499Z,3.57
2023-02-14T09:56:17.677Z,3.57
2023-02-14T10:00:30.811Z,3.58
2023-02-14T10:04:40.312Z,3.56
2023-02-14T10:08:57.121Z,3.61
2023-02-14T10:13:07.769Z,3.70
2023-02-14T10:17:19.866Z,3.66
2023-02-14T10:21:26.928Z,3.75
2023-02-14T10:25:35.759Z,3.70
2023-02-14T10:29:42.292Z,3.77
2023-02-14T10:33:57.705Z,3.74
2023-02-14T10:38:06.762Z,3.74
2023-02-14T10:42:20.782Z,3.83
2023-02-14T10:46:36.220Z,3.88
2023-02-14T10:50:48.890Z,3.98
2023-02-14T10:54:56.945Z,4.03
2023-02-14T10:59:04.014Z,4.05
2023-02-14T11:03:11.163Z,4.05
2023-02-14T11:07:16.858Z,4.09
2023-02-14T11:11:29.979Z,4.05
2023-02-14T11:15:37.187Z,4.04
2023-02-14T11:19:40.247Z,4.05
2023-02-14T11:23:46.789Z,4.04
2023-02-14T11:27:57.416Z,4.08
2023-02-14T11:32:09.917Z,4.15
2023-02-14T11:36:16.975Z,4.24
2023-02-14T11:40:33.988Z,4.36
2023-02-14T11:44:44.148Z,4.36
2023-02-14T11:48:56.531Z,4.31
2023-02-14T11:53:00.397Z,4.42
2023-02-14T11:57:08.906Z,4.43
2023-02-14T12:01:21.682Z,4.41
2023-02-14T12:05:29.548Z,4.39
2023-02-14T12:09:34.407Z,4.37
2023-02-14T12:13:40.962Z,4.53
2023-02-14T12:17:50.432Z,4.46
2023-02-14T12:21:58.406Z,4.42
2023-02-14T12:26:06.105Z,4.47
2023-02-14T12:30:17.988Z,4.34
2023-02-14T12:34:21.641Z,4.40
2023-02-14T12:38:32.334Z,4.47
2023-02-14T12:42:49.522Z,4.58
2023-02-14T12:47:16.334Z,4.62
2023-02-14T12:51:27.445Z,4.58
2023-02-14T12:55:42.946Z,4.57
2023-02-14T13:00:00.283Z,4.48
2023-02-14T13:04:27.019Z,4.54
2023-02-14T13:08:48.240Z,4.46
2023-02-14T13:13:01.044Z,4.51
2023-02-14T13:17:14.358Z,4.53
2023-02-14T13:21:23.833Z,4.44
2023-02-14T13:25:32.090Z,4.33
2023-02-14T13:29:46.573Z,4.26
2023-02-14T13:33:53.802Z,4.19
2023-02-14T13:38:02.199Z,4.27
2023-02-14T13:42:06.321Z,4.28
2023-02-14T13:46:09.615Z,4.35
2023-02-14T13:50:22.371Z,4.41
2023-02-14T13:54:37.889Z,4.38
2023-02-14T13:58:49.073Z,4.40
2023-02-14T14:02:53.688Z,4.49
2023-02-14T14:07:27.293Z,4.50
2023-02-14T14:11:52.928Z,4.44
2023-02-14T14:16:28.007Z,4.38
2023-02-14T14:20:43.620Z,4.31
2023-02-14T14:24:59.888Z,4.28
2023-02-14T14:29:11.738Z,4.26
2023-02-14T14:33:15.951Z,4.22
2023-02-14T14:37:23.767Z,4.18
2023-02-14T14:41:33.286Z,4.16
2023-02-14T14:45:41.940Z,4.10
2023-02-14T14:49:45.103Z,4.13
2023-02-14T14:53:52.132Z,4.15
2023-02-14T14:57:58.861Z,4.12
2023-02-14T15:02:03.918Z,4.09
2023-02-14T15:06:11.439Z,4.06
2023-02-14T15:10:27.402Z,3.99
2023-02-14T15:14:37.184Z,3.98
2023-02-14T15:18:41.746Z,3.93
2023-02-14T15:22:47.713Z,3.91
2023-02-14T15:26:53.353Z,3.86
2023-02-14T15:31:03.466Z,3.85
2023-02-14T15:35:18.978Z,3.84
2023-02-14T15:39:27.597Z,3.82
2023-02-14T15:43:36.851Z,3.82
2023-02-14T15:47:41.851Z,3.78
2023-02-14T15:51:46.306Z,3.79
2023-02-14T15:55:51.185Z,3.77
2023-02-14T15:59:55.304Z,3.75
2023-02-14T16:04:01.861Z,3.73
2023-02-14T16:08:09.553Z,3.72
2023-02-14T16:12:34.042Z,3.72
2023-02-14T16:16:58.482Z,3.70
2023-02-14T16:21:15.763Z,3.71
2023-02-14T16:25:23.319Z,3.68
2023-02-14T16:29:26.409Z,3.68
2023-02-14T16:33:31.590Z,3.66
2023-02-14T16:37:36.385Z,3.66
2023-02-14T16:41:44.531Z,3.66
2023-02-14T16:45:48.087Z,3.65
2023-02-14T16:49:53.231Z,3.67
2023-02-14T16:54:01.156Z,3.65
2023-02-14T16:58:05.527Z,3.66
2023-02-14T17:02:10.486Z,3.65
2023-02-14T17:06:22.057Z,3.67
2023-02-14T17:10:25.278Z,3.64
2023-02-14T17:14:34.907Z,3.64
2023-02-14T17:18:38.062Z,3.65
2023-02-14T17:22:42.781Z,3.64
2023-02-14T17:26:48.901Z,3.62
2023-02-14T17:30:54.850Z,3.64
2023-02-14T17:34:58.021Z,3.63
2023-02-14T17:39:01.098Z,3.62
2023-02-14T17:43:08.552Z,3.61
2023-02-14T17:47:14.949Z,3.61
2023-02-14T17:51:20.567Z,3.61
2023-02-14T17:55:24.023Z,3.61
2023-02-14T17:59:30.045Z,3.59
2023-02-14T18:03:38.048Z,3.60
2023-02-14T18:07:43.563Z,3.60
2023-02-14T18:11:50.896Z,3.60
2023-02-14T18:16:00.185Z,3.60
2023-02-14T18:20:06.053Z,3.59
2023-02-14T18:24:10.042Z,3.61
2023-02-14T18:28:13.171Z,3.60
2023-02-14T18:32:20.507Z,3.58
2023-02-14T18:36:25.584Z,3.58
2023-02-14T18:40:29.993Z,3.59
2023-02-14T18:44:33.758Z,3.58
2023-02-14T18:48:38.588Z,3.57
2023-02-14T18:52:45.939Z,3.57
2023-02-14T18:56:48.806Z,3.58
2023-02-14T19:00:52.111Z,3.55
2023-02-14T19:04:55.119Z,3.57
2023-02-14T19:08:59.965Z,3.58
2023-02-14T19:13:05.855Z,3.55
2023-02-14T19:17:09.328Z,3.57
2023-02-14T19:21:14.657Z,3.55
2023-02-14T19:25:19.407Z,3.54
2023-02-14T19:29:23.368Z,3.54
2023-02-14T19:33:26.721Z,3.53
2023-02-14T19:37:30.113Z,3.53
2023-02-14T19:41:35.870Z,3.52
2023-02-14T19:45:40.222Z,3.51
2023-02-14T19:49:46.549Z,3.51
2023-02-14T19:53:50.036Z,3.49
2023-02-14T19:57:54.515Z,3.51
2023-02-14T20:01:58.572Z,3.50
2023-02-14T20:06:03.611Z,3.50
2023-02-14T20:10:07.701Z,3.48
2023-02-14T20:14:18.362Z,3.48
2023-02-14T20:18:24.702Z,3.46
2023-02-14T20:22:28.378Z,3.46
2023-02-14T20:26:33.318Z,3.46
2023-02-14T20:30:40.138Z,3.45
2023-02-14T20:34:46.180Z,3.42
2023-02-14T20:38:49.172Z,3.42
2023-02-14T20:42:52.319Z,3.39
2023-02-14T20:46:57.090Z,3.42
2023-02-14T20:51:09.669Z,3.40
2023-02-14T20:55:12.852Z,3.39
2023-02-14T20:59:17.373Z,3.38
2023-02-14T21:03:23.773Z,3.38
2023-02-14T21:07:31.027Z,3.37
2023-02-14T21:11:34.552Z,3.39
2023-02-14T21:15:44.881Z,3.36
2023-02-14T21:19:55.373Z,3.38
2023-02-14T21:23:58.506Z,3.39
2023-02-14T21:28:03.333Z,3.34
2023-02-14T21:32:08.828Z,3.35
2023-02-14T21:36:18.088Z,3.33
2023-02-14T21:40:26.330Z,3.34
2023-02-14T21:44:47.208Z,3.33
2023-02-14T21:49:07.408Z,3.32
2023-02-14T21:53:11.632Z,3.30
2023-02-14T21:57:14.750Z,3.29
2023-02-14T22:01:20.944Z,3.29
2023-02-14T22:05:24.247Z,3.29
2023-02-14T22:09:29.115Z,3.29
2023-02-14T22:13:32.163Z,3.29
2023-02-14T22:17:37.941Z,3.28
2023-02-14T22:21:40.985Z,3.27
2023-02-14T22:25:45.633Z,3.25
2023-02-14T22:29:48.551Z,3.24
2023-02-14T22:33:54.495Z,3.23
2023-02-14T22:37:59.816Z,3.23
2023-02-14T22:42:06.957Z,3.21
2023-02-14T22:46:12.460Z,3.25
2023-02-14T22:50:15.760Z,3.23
2023-02-14T22:54:18.809Z,3.21
2023-02-14T22:58:26.547Z,3.22
2023-02-14T23:02:30.205Z,3.21
2023-02-14T23:06:35.757Z,3.17
2023-02-14T23:10:38.991Z,3.17
2023-02-14T23:15:00.965Z,3.15
2023-02-14T23:19:21.583Z,3.14
2023-02-14T23:23:24.845Z,3.14
2023-02-14T23:27:30.825Z,3.14
2023-02-14T23:31:37.105Z,3.14
2023-02-14T23:35:40.661Z,3.12
2023-02-14T23:39:45.039Z,3.13
2023-02-14T23:43:50.323Z,3.11
2023-02-14T23:47:54.999Z,3.12
2023-02-14T23:51:58.161Z,3.11
2023-02-14T23:56:06.106Z,3.11
